Terminal Aerodrome Forecast
Issued by NWS Sioux Falls, SD

Home | Current Version | Previous Version | Text Only | Print | Product List | Glossary On
Versions: 1 2 3 4 5 6 7 8 9 10 11 12 13 14 15 16 17 18 19 20
000
FTUS43 KFSD 210525
TAFFSD
TAF
KFSD 210525Z 2106/2206 29006KT P6SM SKC
     FM211100 29006KT P6SM BKN120
     FM211400 33013G19KT P6SM OVC100
     FM211900 33023G31KT P6SM SCT070
     FM220130 34009KT P6SM SKC=

USA.gov is the U.S. government's official web portal to all federal, state and local government web resources and services.